Main page
METAR-TAF:

METAR-TAF

Airports :

João Paulo II Airport

Ponta Delgada, Azores, Portugal

latitude: 37-44N, longitude: 025-42W, elevation: 71 m

Current weather observation

The report was made 25 minutes ago, at 02:00 UTC
Wind 9 kt from the South/Southwest
Temperature 23°C
Humidity 89%
Pressure 1021 hPa
Visibility 10 km or more
Few clouds at a height of 2000 ft
Scattered clouds at a height of 3000 ft

METAR: LPPD 220200Z 20009KT 9999 FEW020 SCT030 23/21 Q1021

Time: 02:25 (02:25 UTC)

Forecast

The report was made 3 hours and 25 minutes ago, at 23:00 UTC
Forecast valid from 22 at 00 UTC to 22 at 24 UTC
Wind 8 kt from the South/Southwest
Visibility 10 km or more
Scattered clouds at a height of 1500 ft
Temporary
from 22 at 08 UTC to 22 at 18 UTC
Scattered clouds at a height of 800 ft
Scattered clouds at a height of 2000 ft

TAF: LPPD 212300Z 2200/2224 20008KT 9999 SCT015 TEMPO 2208/2218 SCT008 SCT020

Weather observations and forecasts of more than 4000 airports (METAR and TAF reports).

The available stations are represented by yellow and red dots on the map.

Hover mouse over dot to see the name of the station.

Then click to see weather observations and forecasts.

To change the map : click on the green buttons with a black cross to zoom in, on the green button with a dash to zoom out, or on the green arrows for adjacent maps.


METAR-TAF: